Time,TemperatureF,DewpointF,PressureIn,WindDirection,WindDirectionDegrees,WindSpeedMPH,WindSpeedGustMPH,Humidity,HourlyPrecipIn,Conditions,Clouds,dailyrainin,SoftwareType,DateUTC
2013-01-16 00:00:00,33.4,32.1,22.74,NE,40,0.0,0.0,95,0.10,RA,,0.00,WeatherDisplay:10.37,2013-01-16 05:00:00,
2013-01-16 00:01:00,33.4,32.1,22.74,NE,40,0.0,0.0,95,0.10,RA,,0.00,WeatherDisplay:10.37,2013-01-16 05:01:00,
2013-01-16 00:02:00,33.4,32.1,22.74,NE,38,0.0,0.0,95,0.10,RA,,0.00,WeatherDisplay:10.37,2013-01-16 05:02:00,
2013-01-16 00:07:00,33.6,32.6,22.74,NW,313,0.0,0.0,96,0.10,RA,,0.01,WeatherDisplay:10.37,2013-01-16 05:07:00,
2013-01-16 00:13:00,33.7,32.7,22.74,NW,313,0.0,0.0,96,0.09,RA,,0.02,WeatherDisplay:10.37,2013-01-16 05:13:00,
2013-01-16 00:18:00,33.8,32.8,22.74,NW,313,0.0,0.0,96,0.10,RA,,0.03,WeatherDisplay:10.37,2013-01-16 05:18:00,
2013-01-16 00:23:00,33.8,32.8,22.74,NW,313,0.0,0.0,96,0.09,RA,,0.03,WeatherDisplay:10.37,2013-01-16 05:23:00,
2013-01-16 00:28:00,33.7,32.7,22.74,NW,313,0.0,0.0,96,0.09,RA,,0.04,WeatherDisplay:10.37,2013-01-16 05:28:00,
2013-01-16 00:33:00,33.7,32.7,22.74,NNE,22,1.1,1.1,96,0.08,RA,,0.04,WeatherDisplay:10.37,2013-01-16 05:33:00,
2013-01-16 00:38:00,33.7,32.7,22.74,NNE,22,0.0,0.0,96,0.08,CLR,,0.04,WeatherDisplay:10.37,2013-01-16 05:38:00,
2013-01-16 00:43:00,33.7,32.7,22.74,NNE,21,0.0,0.0,96,0.07,CLR,,0.04,WeatherDisplay:10.37,2013-01-16 05:43:00,
2013-01-16 00:48:00,33.8,32.8,22.74,NNE,22,0.0,0.0,96,0.06,CLR,,0.04,WeatherDisplay:10.37,2013-01-16 05:48:00,
2013-01-16 00:53:00,33.9,32.9,22.74,NNE,22,0.0,0.0,96,0.06,CLR,,0.04,WeatherDisplay:10.37,2013-01-16 05:53:00,
2013-01-16 00:58:00,34.1,33.1,22.74,NNE,22,0.0,0.0,96,0.05,RA,,0.05,WeatherDisplay:10.37,2013-01-16 05:58:00,
2013-01-16 01:03:00,34.2,33.2,22.74,NNE,22,0.0,0.0,96,0.05,RA,,0.05,WeatherDisplay:10.37,2013-01-16 06:03:00,
2013-01-16 01:08:00,34.1,33.1,22.74,NNE,22,0.0,0.0,96,0.04,,,0.06,WeatherDisplay:10.37,2013-01-16 06:08:00,
2013-01-16 01:13:00,34.0,33.0,22.74,NNE,22,0.0,0.0,96,0.04,RA,,0.06,WeatherDisplay:10.37,2013-01-16 06:13:00,
2013-01-16 01:18:00,34.2,33.2,22.74,NNE,21,0.0,0.0,96,0.03,RA,,0.06,WeatherDisplay:10.37,2013-01-16 06:18:00,
2013-01-16 01:23:00,34.4,33.4,22.74,NNE,21,0.0,0.0,96,0.03,CLR,,0.06,WeatherDisplay:10.37,2013-01-16 06:23:00,
2013-01-16 01:28:00,34.4,33.4,22.74,NNE,21,0.0,0.0,96,0.02,CLR,,0.06,WeatherDisplay:10.37,2013-01-16 06:28:00,
2013-01-16 01:33:00,34.4,33.4,22.74,NNE,22,0.0,0.0,96,0.03,RA,,0.07,WeatherDisplay:10.37,2013-01-16 06:33:00,
2013-01-16 01:38:00,34.4,33.4,22.74,NNE,22,0.0,0.0,96,0.03,RA,,0.08,WeatherDisplay:10.37,2013-01-16 06:38:00,
2013-01-16 01:43:00,34.4,33.4,22.74,NNE,22,0.0,0.0,96,0.04,RA,,0.08,WeatherDisplay:10.37,2013-01-16 06:43:00,
2013-01-16 01:48:00,34.4,33.4,22.74,NNE,22,0.0,0.0,96,0.04,RA,,0.08,WeatherDisplay:10.37,2013-01-16 06:48:00,
2013-01-16 01:53:00,34.4,33.4,22.74,NNE,22,0.0,0.0,96,0.04,CLR,,0.08,WeatherDisplay:10.37,2013-01-16 06:53:00,
2013-01-16 01:58:00,34.4,33.4,22.74,NNE,21,0.0,0.0,96,0.04,RA,,0.09,WeatherDisplay:10.37,2013-01-16 06:58:00,
2013-01-16 02:03:00,34.4,33.4,22.74,NNE,22,0.0,0.0,96,0.04,RA,,0.09,WeatherDisplay:10.37,2013-01-16 07:03:00,
2013-01-16 02:08:00,34.4,33.4,22.74,NNE,21,0.0,0.0,96,0.05,RA,,0.09,WeatherDisplay:10.37,2013-01-16 07:08:00,
2013-01-16 02:13:00,34.4,33.4,22.74,NNE,22,0.0,0.0,96,0.04,RA,,0.09,WeatherDisplay:10.37,2013-01-16 07:13:00,
2013-01-16 02:18:00,34.4,33.4,22.74,NNE,22,0.0,0.0,96,0.04,CLR,,0.09,WeatherDisplay:10.37,2013-01-16 07:18:00,
2013-01-16 02:23:00,34.4,33.4,22.74,NNE,22,0.0,0.0,96,0.04,CLR,,0.09,WeatherDisplay:10.37,2013-01-16 07:23:00,
2013-01-16 02:28:00,34.4,33.4,22.74,NNE,22,0.0,0.0,96,0.04,CLR,,0.09,WeatherDisplay:10.37,2013-01-16 07:28:00,
2013-01-16 02:33:00,34.4,33.4,22.74,NNE,22,0.0,0.0,96,0.03,CLR,,0.09,WeatherDisplay:10.37,2013-01-16 07:33:00,
2013-01-16 02:38:00,34.4,33.4,22.74,NNE,21,0.0,0.0,96,0.03,CLR,,0.09,WeatherDisplay:10.37,2013-01-16 07:38:00,
2013-01-16 02:43:00,34.4,33.4,22.74,NNE,21,0.0,0.0,96,0.02,CLR,,0.09,WeatherDisplay:10.37,2013-01-16 07:43:00,
2013-01-16 02:48:00,34.4,33.4,22.74,NNE,21,0.0,0.0,96,0.03,RA,,0.10,WeatherDisplay:10.37,2013-01-16 07:48:00,
2013-01-16 02:53:00,34.4,33.4,22.74,NNE,22,0.0,0.0,96,0.03,RA,,0.10,WeatherDisplay:10.37,2013-01-16 07:53:00,
2013-01-16 02:58:00,34.4,33.4,22.74,NNE,22,0.0,0.0,96,0.02,,,0.10,WeatherDisplay:10.37,2013-01-16 07:58:00,
2013-01-16 03:03:00,34.4,33.4,22.74,NNE,21,0.0,0.0,96,0.02,CLR,,0.10,WeatherDisplay:10.37,2013-01-16 08:03:00,
2013-01-16 03:08:00,34.6,33.6,22.74,NNE,22,0.0,0.0,96,0.01,CLR,,0.10,WeatherDisplay:10.37,2013-01-16 08:08:00,
2013-01-16 03:13:00,34.6,33.6,22.74,NNE,21,0.0,0.0,96,0.01,CLR,,0.10,WeatherDisplay:10.37,2013-01-16 08:13:00,
2013-01-16 03:18:00,34.7,33.7,22.74,NNE,22,0.0,0.0,96,0.01,CLR,,0.10,WeatherDisplay:10.37,2013-01-16 08:18:00,
2013-01-16 03:23:00,34.7,33.7,22.74,NNE,21,0.0,0.0,96,0.02,RA,,0.11,WeatherDisplay:10.37,2013-01-16 08:23:00,
2013-01-16 03:28:00,34.6,33.6,22.74,NNE,22,0.0,0.0,96,0.02,RA,,0.11,WeatherDisplay:10.37,2013-01-16 08:28:00,
2013-01-16 03:33:00,34.8,33.8,22.74,NW,321,1.1,0.0,96,0.02,,,0.11,WeatherDisplay:10.37,2013-01-16 08:33:00,
2013-01-16 03:38:00,35.0,34.0,22.74,NW,321,1.1,0.0,96,0.02,CLR,,0.11,WeatherDisplay:10.37,2013-01-16 08:38:00,
2013-01-16 03:43:00,35.2,34.2,22.74,NW,321,1.0,1.0,96,0.02,CLR,,0.11,WeatherDisplay:10.37,2013-01-16 08:43:00,
2013-01-16 03:48:00,35.2,34.2,22.74,NW,321,0.0,0.0,96,0.02,RA,,0.12,WeatherDisplay:10.37,2013-01-16 08:48:00,
2013-01-16 03:53:00,35.2,34.2,22.74,NW,321,0.0,0.0,96,0.02,RA,,0.12,WeatherDisplay:10.37,2013-01-16 08:53:00,
2013-01-16 03:58:00,35.1,34.1,22.74,NW,321,0.0,0.0,96,0.03,RA,,0.13,WeatherDisplay:10.37,2013-01-16 08:58:00,
2013-01-16 04:03:00,35.1,34.1,22.74,NW,321,0.0,0.0,96,0.03,RA,,0.13,WeatherDisplay:10.37,2013-01-16 09:03:00,
2013-01-16 04:08:00,35.1,34.1,22.74,NW,321,0.0,0.0,96,0.03,CLR,,0.13,WeatherDisplay:10.37,2013-01-16 09:08:00,
2013-01-16 04:13:00,35.2,34.2,22.74,NW,321,0.0,0.0,96,0.03,CLR,,0.13,WeatherDisplay:10.37,2013-01-16 09:13:00,
2013-01-16 04:18:00,35.2,34.2,22.74,NW,321,0.0,0.0,96,0.04,RA,,0.14,WeatherDisplay:10.37,2013-01-16 09:18:00,
2013-01-16 04:23:00,35.1,34.1,22.74,NW,321,0.0,0.0,96,0.03,RA,,0.14,WeatherDisplay:10.37,2013-01-16 09:23:00,
2013-01-16 04:28:00,35.1,34.1,22.74,NW,321,0.0,0.0,96,0.04,RA,,0.15,WeatherDisplay:10.37,2013-01-16 09:28:00,
2013-01-16 04:33:00,35.0,34.0,22.74,NW,321,0.0,0.0,96,0.04,RA,,0.15,WeatherDisplay:10.37,2013-01-16 09:33:00,
2013-01-16 04:38:00,35.0,34.0,22.74,NW,321,0.0,0.0,96,0.04,CLR,,0.15,WeatherDisplay:10.37,2013-01-16 09:38:00,
2013-01-16 04:43:00,34.9,33.9,22.74,NW,321,0.0,0.0,96,0.04,CLR,,0.15,WeatherDisplay:10.37,2013-01-16 09:43:00,
2013-01-16 04:48:00,35.0,34.0,22.74,NW,321,1.0,1.0,96,0.04,RA,,0.16,WeatherDisplay:10.37,2013-01-16 09:48:00,
2013-01-16 04:53:00,34.8,33.8,22.74,NW,321,0.0,0.0,96,0.04,RA,,0.16,WeatherDisplay:10.37,2013-01-16 09:53:00,
2013-01-16 04:58:00,34.9,33.9,22.74,NW,321,0.0,0.0,96,0.04,RA,,0.17,WeatherDisplay:10.37,2013-01-16 09:58:00,
2013-01-16 05:03:00,34.9,33.9,22.74,NW,321,0.0,0.0,96,0.04,RA,,0.17,WeatherDisplay:10.37,2013-01-16 10:03:00,
2013-01-16 05:08:00,35.0,34.0,22.74,NE,37,0.0,0.0,96,0.04,,,0.17,WeatherDisplay:10.37,2013-01-16 10:08:00,
2013-01-16 05:14:00,35.0,34.0,22.74,NE,37,0.0,0.0,96,0.04,CLR,,0.17,WeatherDisplay:10.37,2013-01-16 10:14:00,
2013-01-16 05:19:00,35.0,34.0,22.74,NE,37,0.0,0.0,96,0.03,CLR,,0.17,WeatherDisplay:10.37,2013-01-16 10:19:00,
2013-01-16 05:24:00,35.1,34.1,22.74,NE,37,0.0,0.0,96,0.03,CLR,,0.17,WeatherDisplay:10.37,2013-01-16 10:24:00,
2013-01-16 05:29:00,35.3,34.3,22.74,NE,37,0.0,0.0,96,0.02,CLR,,0.17,WeatherDisplay:10.37,2013-01-16 10:29:00,
2013-01-16 05:34:00,35.3,34.3,22.74,NE,37,0.0,0.0,96,0.02,CLR,,0.17,WeatherDisplay:10.37,2013-01-16 10:34:00,
2013-01-16 05:39:00,35.3,34.3,22.74,NE,37,0.0,0.0,96,0.02,CLR,,0.17,WeatherDisplay:10.37,2013-01-16 10:39:00,
2013-01-16 05:44:00,35.3,34.3,22.74,NE,37,0.0,0.0,96,0.02,CLR,,0.17,WeatherDisplay:10.37,2013-01-16 10:44:00,
2013-01-16 05:49:00,35.4,34.4,22.74,NE,37,0.0,0.0,96,0.01,CLR,,0.17,WeatherDisplay:10.37,2013-01-16 10:49:00,
2013-01-16 05:54:00,35.5,34.5,22.74,NE,37,0.0,0.0,96,0.01,CLR,,0.17,WeatherDisplay:10.37,2013-01-16 10:54:00,
2013-01-16 05:59:00,35.5,34.5,22.74,NE,37,0.0,0.0,96,0.00,CLR,,0.17,WeatherDisplay:10.37,2013-01-16 10:59:00,
2013-01-16 06:04:00,35.7,34.7,22.74,NE,37,0.0,0.0,96,0.01,RA,,0.18,WeatherDisplay:10.37,2013-01-16 11:04:00,
2013-01-16 06:09:00,35.8,34.8,22.74,NE,37,0.0,0.0,96,0.01,RA,,0.18,WeatherDisplay:10.37,2013-01-16 11:09:00,
2013-01-16 06:14:00,35.7,34.7,22.74,West,265,2.3,2.3,96,0.01,CLR,,0.18,WeatherDisplay:10.37,2013-01-16 11:14:00,
2013-01-16 06:19:00,35.7,34.7,22.74,West,266,0.0,0.0,96,0.01,CLR,,0.18,WeatherDisplay:10.37,2013-01-16 11:19:00,
2013-01-16 06:24:00,35.6,34.6,22.74,SSW,195,3.5,3.5,96,0.02,RA,,0.19,WeatherDisplay:10.37,2013-01-16 11:24:00,
2013-01-16 06:29:00,35.5,34.5,22.74,South,179,3.5,3.5,96,0.02,RA,,0.19,WeatherDisplay:10.37,2013-01-16 11:29:00,
2013-01-16 06:34:00,35.4,34.4,22.74,SSW,200,3.5,3.5,96,0.02,,,0.19,WeatherDisplay:10.37,2013-01-16 11:34:00,
2013-01-16 06:39:00,35.4,34.4,22.74,South,191,5.8,5.8,96,0.02,CLR,,0.19,WeatherDisplay:10.37,2013-01-16 11:39:00,
2013-01-16 06:44:00,35.3,34.3,22.74,South,184,6.9,6.9,96,0.02,CLR,,0.19,WeatherDisplay:10.37,2013-01-16 11:44:00,
2013-01-16 06:49:00,35.3,34.3,22.74,SE,140,4.6,4.6,96,0.02,CLR,,0.19,WeatherDisplay:10.37,2013-01-16 11:49:00,
2013-01-16 06:54:00,35.3,34.3,22.74,SSW,195,3.5,3.5,96,0.02,CLR,,0.19,WeatherDisplay:10.37,2013-01-16 11:54:00,
2013-01-16 06:59:00,35.4,34.4,22.74,SW,232,0.0,0.0,96,0.02,CLR,,0.19,WeatherDisplay:10.37,2013-01-16 11:59:00,
2013-01-16 07:04:00,35.6,34.6,22.74,West,271,0.0,0.0,96,0.01,CLR,,0.19,WeatherDisplay:10.37,2013-01-16 12:04:00,
2013-01-16 07:09:00,35.7,34.7,22.74,West,273,1.0,1.0,96,0.01,CLR,,0.19,WeatherDisplay:10.37,2013-01-16 12:09:00,
2013-01-16 07:14:00,36.0,35.0,22.74,NW,306,1.1,1.1,96,0.01,CLR,,0.19,WeatherDisplay:10.37,2013-01-16 12:14:00,
2013-01-16 07:19:00,36.1,35.1,22.74,West,276,3.5,3.5,96,0.01,CLR,,0.19,WeatherDisplay:10.37,2013-01-16 12:19:00,
2013-01-16 07:24:00,36.3,35.3,22.74,WNW,284,3.5,3.5,96,0.00,CLR,,0.19,WeatherDisplay:10.37,2013-01-16 12:24:00,
2013-01-16 07:29:00,36.4,35.6,22.74,ESE,123,1.0,1.0,97,0.00,CLR,,0.19,WeatherDisplay:10.37,2013-01-16 12:29:00,
2013-01-16 07:34:00,36.3,35.5,22.74,West,279,4.6,4.6,97,0.00,CLR,,0.19,WeatherDisplay:10.37,2013-01-16 12:34:00,
2013-01-16 07:39:00,36.4,35.6,22.74,West,265,6.9,6.9,97,0.01,RA,,0.20,WeatherDisplay:10.37,2013-01-16 12:39:00,
2013-01-16 07:44:00,36.5,35.7,22.74,West,268,2.3,2.3,97,0.01,RA,,0.20,WeatherDisplay:10.37,2013-01-16 12:44:00,
2013-01-16 07:49:00,36.5,35.7,22.74,West,268,0.0,0.0,97,0.02,RA,,0.21,WeatherDisplay:10.37,2013-01-16 12:49:00,
2013-01-16 07:54:00,36.5,35.7,22.74,West,268,0.0,0.0,97,0.02,RA,,0.21,WeatherDisplay:10.37,2013-01-16 12:54:00,
2013-01-16 07:59:00,36.6,35.8,22.74,WSW,244,3.5,3.5,97,0.02,,,0.21,WeatherDisplay:10.37,2013-01-16 12:59:00,
2013-01-16 08:04:00,36.6,35.6,22.74,West,271,3.5,3.5,96,0.03,RA,,0.22,WeatherDisplay:10.37,2013-01-16 13:04:00,
2013-01-16 08:09:00,36.6,35.6,22.74,West,271,0.0,0.0,96,0.04,RA,,0.23,WeatherDisplay:10.37,2013-01-16 13:09:00,
2013-01-16 08:14:00,36.4,35.4,22.74,West,271,2.3,0.0,96,0.04,RA,,0.23,WeatherDisplay:10.37,2013-01-16 13:14:00,
2013-01-16 08:19:00,36.5,35.5,22.74,West,271,4.0,4.0,96,0.04,,,0.23,WeatherDisplay:10.37,2013-01-16 13:19:00,
2013-01-16 08:24:00,36.6,35.6,22.74,WNW,302,4.6,4.6,96,0.04,CLR,,0.23,WeatherDisplay:10.37,2013-01-16 13:24:00,
2013-01-16 08:29:00,36.6,35.6,22.74,WNW,284,4.0,4.0,96,0.04,CLR,,0.23,WeatherDisplay:10.37,2013-01-16 13:29:00,
2013-01-16 08:34:00,36.6,35.6,22.74,WNW,294,0.0,0.0,96,0.05,RA,,0.24,WeatherDisplay:10.37,2013-01-16 13:34:00,
2013-01-16 08:39:00,36.5,35.5,22.74,SW,232,3.5,3.5,96,0.04,RA,,0.24,WeatherDisplay:10.37,2013-01-16 13:39:00,
2013-01-16 08:44:00,36.5,35.5,22.74,WSW,256,3.5,3.5,96,0.05,RA,,0.25,WeatherDisplay:10.37,2013-01-16 13:44:00,
2013-01-16 08:49:00,36.6,35.6,22.74,WSW,256,0.0,0.0,96,0.04,RA,,0.25,WeatherDisplay:10.37,2013-01-16 13:49:00,
2013-01-16 08:54:00,36.6,35.6,22.74,West,263,1.1,0.0,96,0.04,CLR,,0.25,WeatherDisplay:10.37,2013-01-16 13:54:00,
2013-01-16 08:59:00,36.6,35.6,22.74,SW,229,2.0,2.0,96,0.04,CLR,,0.25,WeatherDisplay:10.37,2013-01-16 13:59:00,
2013-01-16 09:04:00,36.4,35.4,22.74,East,90,0.0,0.0,96,0.03,CLR,,0.25,WeatherDisplay:10.37,2013-01-16 14:04:00,
2013-01-16 09:09:00,36.1,35.1,22.74,East,95,3.5,3.5,96,0.02,CLR,,0.25,WeatherDisplay:10.37,2013-01-16 14:09:00,
2013-01-16 09:14:00,36.1,35.1,22.74,West,270,5.8,5.8,96,0.02,CLR,,0.25,WeatherDisplay:10.37,2013-01-16 14:14:00,
2013-01-16 09:19:00,36.2,35.2,22.74,WSW,252,3.5,3.5,96,0.02,CLR,,0.25,WeatherDisplay:10.37,2013-01-16 14:19:00,
2013-01-16 09:24:00,36.2,35.2,22.74,SW,219,2.0,2.0,96,0.02,CLR,,0.25,WeatherDisplay:10.37,2013-01-16 14:24:00,
2013-01-16 09:29:00,36.2,35.2,22.74,SW,219,0.0,0.0,96,0.02,CLR,,0.25,WeatherDisplay:10.37,2013-01-16 14:29:00,
2013-01-16 09:34:00,36.1,35.1,22.74,WSW,257,3.5,3.5,96,0.01,CLR,,0.25,WeatherDisplay:10.37,2013-01-16 14:34:00,
2013-01-16 09:39:00,36.1,35.1,22.74,WSW,257,0.0,0.0,96,0.01,CLR,,0.25,WeatherDisplay:10.37,2013-01-16 14:39:00,
2013-01-16 09:45:00,36.2,35.2,22.74,WSW,257,3.5,3.5,96,0.00,CLR,,0.25,WeatherDisplay:10.37,2013-01-16 14:45:00,
2013-01-16 09:50:00,36.3,35.3,22.74,WSW,257,3.5,3.5,96,0.00,CLR,,0.25,WeatherDisplay:10.37,2013-01-16 14:50:00,
2013-01-16 09:55:00,36.1,35.1,22.74,SSE,158,0.0,0.0,96,0.00,CLR,,0.25,WeatherDisplay:10.37,2013-01-16 14:55:00,
2013-01-16 10:00:00,36.3,35.3,22.74,WNW,298,3.5,3.5,96,0.00,CLR,,0.25,WeatherDisplay:10.37,2013-01-16 15:00:00,
2013-01-16 10:05:00,36.3,35.3,22.74,WNW,299,4.6,4.6,96,0.00,CLR,,0.25,WeatherDisplay:10.37,2013-01-16 15:05:00,
2013-01-16 10:10:00,36.2,35.2,22.74,WNW,287,9.2,9.2,96,0.00,CLR,,0.25,WeatherDisplay:10.37,2013-01-16 15:10:00,
2013-01-16 10:15:00,36.2,35.2,22.74,West,281,9.2,9.2,96,0.00,CLR,,0.25,WeatherDisplay:10.37,2013-01-16 15:15:00,
2013-01-16 10:20:00,36.1,35.1,22.74,ENE,59,3.5,3.5,96,0.00,CLR,,0.25,WeatherDisplay:10.37,2013-01-16 15:20:00,
2013-01-16 10:25:00,36.1,35.1,22.74,West,272,2.3,2.3,96,0.00,CLR,,0.25,WeatherDisplay:10.37,2013-01-16 15:25:00,
2013-01-16 10:30:00,36.2,35.2,22.74,West,272,0.0,0.0,96,0.00,CLR,,0.25,WeatherDisplay:10.37,2013-01-16 15:30:00,
2013-01-16 10:35:00,36.2,35.2,22.74,WNW,286,3.5,3.5,96,0.00,CLR,,0.25,WeatherDisplay:10.37,2013-01-16 15:35:00,
2013-01-16 10:40:00,36.3,35.3,22.74,SSW,196,3.5,3.5,96,0.00,CLR,,0.25,WeatherDisplay:10.37,2013-01-16 15:40:00,
2013-01-16 10:45:00,36.4,35.4,22.74,West,275,3.5,3.5,96,0.00,CLR,,0.25,WeatherDisplay:10.37,2013-01-16 15:45:00,
2013-01-16 10:50:00,36.5,35.5,22.74,West,269,4.6,4.6,96,0.00,CLR,,0.25,WeatherDisplay:10.37,2013-01-16 15:50:00,
2013-01-16 10:55:00,36.6,35.6,22.74,West,264,3.5,3.5,96,0.00,CLR,,0.25,WeatherDisplay:10.37,2013-01-16 15:55:00,
2013-01-16 11:00:00,36.7,35.7,22.74,West,273,0.0,0.0,96,0.00,CLR,,0.25,WeatherDisplay:10.37,2013-01-16 16:00:00,
2013-01-16 11:05:00,36.8,35.8,22.74,West,263,4.6,4.6,96,0.00,CLR,,0.25,WeatherDisplay:10.37,2013-01-16 16:05:00,
2013-01-16 11:10:00,36.8,35.8,22.74,WSW,245,3.5,3.5,96,0.00,CLR,,0.25,WeatherDisplay:10.37,2013-01-16 16:10:00,
2013-01-16 11:15:00,36.8,35.8,22.74,West,261,0.0,0.0,96,0.00,CLR,,0.25,WeatherDisplay:10.37,2013-01-16 16:15:00,
2013-01-16 11:20:00,36.8,35.8,22.74,West,281,5.0,5.0,96,0.00,CLR,,0.25,WeatherDisplay:10.37,2013-01-16 16:20:00,
2013-01-16 11:25:00,36.9,35.9,22.74,WSW,238,3.5,3.5,96,0.00,CLR,,0.25,WeatherDisplay:10.37,2013-01-16 16:25:00,
2013-01-16 11:30:00,36.8,35.8,22.74,WSW,255,3.5,3.5,96,0.00,CLR,,0.25,WeatherDisplay:10.37,2013-01-16 16:30:00,
2013-01-16 11:35:00,36.6,35.6,22.74,SSW,205,3.5,3.5,96,0.00,CLR,,0.25,WeatherDisplay:10.37,2013-01-16 16:35:00,
2013-01-16 11:40:00,36.6,35.6,22.74,West,269,4.6,4.6,96,0.00,CLR,,0.25,WeatherDisplay:10.37,2013-01-16 16:40:00,
2013-01-16 11:45:00,36.8,35.8,22.74,West,269,3.5,3.5,96,0.00,CLR,,0.25,WeatherDisplay:10.37,2013-01-16 16:45:00,
2013-01-16 11:50:00,36.9,35.9,22.74,WNW,284,3.0,3.0,96,0.00,CLR,,0.25,WeatherDisplay:10.37,2013-01-16 16:50:00,
2013-01-16 11:55:00,36.9,35.9,22.74,West,267,9.2,9.2,96,0.00,CLR,,0.25,WeatherDisplay:10.37,2013-01-16 16:55:00,
2013-01-16 12:00:00,36.9,35.9,22.74,West,281,10.4,10.4,96,0.00,CLR,,0.25,WeatherDisplay:10.37,2013-01-16 17:00:00,
2013-01-16 12:05:00,36.8,35.8,22.74,West,275,9.2,9.2,96,0.00,CLR,,0.25,WeatherDisplay:10.37,2013-01-16 17:05:00,
2013-01-16 12:10:00,36.6,35.6,22.74,WNW,298,3.5,3.5,96,0.01,RA,,0.26,WeatherDisplay:10.37,2013-01-16 17:10:00,
2013-01-16 12:15:00,36.6,35.6,22.74,WSW,254,11.5,11.5,96,0.01,RA,,0.26,WeatherDisplay:10.37,2013-01-16 17:15:00,
2013-01-16 12:20:00,36.6,35.6,22.74,NW,323,6.9,6.9,96,0.01,CLR,,0.26,WeatherDisplay:10.37,2013-01-16 17:20:00,
2013-01-16 12:25:00,36.6,35.3,22.74,West,259,7.0,7.0,95,0.01,CLR,,0.26,WeatherDisplay:10.37,2013-01-16 17:25:00,
2013-01-16 12:30:00,36.7,35.4,22.74,WNW,283,0.0,0.0,95,0.01,CLR,,0.26,WeatherDisplay:10.37,2013-01-16 17:30:00,
2013-01-16 12:35:00,36.9,35.6,22.74,West,259,2.3,2.3,95,0.01,CLR,,0.27,WeatherDisplay:10.37,2013-01-16 17:35:00,
2013-01-16 12:40:00,37.0,35.7,22.74,WSW,245,3.5,3.5,95,0.02,RA,,0.27,WeatherDisplay:10.37,2013-01-16 17:40:00,
2013-01-16 12:45:00,37.0,35.7,22.74,WSW,249,3.5,3.5,95,0.02,RA,,0.27,WeatherDisplay:10.37,2013-01-16 17:45:00,
2013-01-16 12:50:00,36.9,35.6,22.74,WSW,240,3.5,3.5,95,0.02,CLR,,0.27,WeatherDisplay:10.37,2013-01-16 17:50:00,
2013-01-16 12:55:00,36.8,35.5,22.74,WSW,255,5.8,5.8,95,0.02,CLR,,0.27,WeatherDisplay:10.37,2013-01-16 17:55:00,
2013-01-16 13:00:00,36.8,35.5,22.74,WSW,255,6.9,6.9,95,0.02,CLR,,0.27,WeatherDisplay:10.37,2013-01-16 18:00:00,
2013-01-16 13:05:00,36.8,35.5,22.74,West,266,5.8,5.8,95,0.02,CLR,,0.27,WeatherDisplay:10.37,2013-01-16 18:05:00,
2013-01-16 13:10:00,36.7,35.4,22.74,SW,218,3.5,3.5,95,0.01,CLR,,0.27,WeatherDisplay:10.37,2013-01-16 18:10:00,
2013-01-16 13:15:00,36.7,35.7,22.74,SW,221,4.0,4.0,96,0.01,CLR,,0.27,WeatherDisplay:10.37,2013-01-16 18:15:00,
2013-01-16 13:20:00,36.5,35.5,22.74,WSW,255,3.5,3.5,96,0.01,CLR,,0.27,WeatherDisplay:10.37,2013-01-16 18:20:00,
2013-01-16 13:25:00,36.6,35.6,22.74,WSW,254,3.5,3.5,96,0.01,CLR,,0.27,WeatherDisplay:10.37,2013-01-16 18:25:00,
2013-01-16 13:30:00,36.6,35.6,22.74,WSW,254,3.5,3.5,96,0.01,CLR,,0.28,WeatherDisplay:10.37,2013-01-16 18:30:00,
2013-01-16 13:35:00,36.6,35.6,22.74,WSW,254,3.5,3.5,96,0.02,RA,,0.28,WeatherDisplay:10.37,2013-01-16 18:35:00,
2013-01-16 13:40:00,36.7,35.7,22.74,WSW,254,3.5,3.5,96,0.01,RA,,0.28,WeatherDisplay:10.37,2013-01-16 18:40:00,
2013-01-16 13:45:00,36.8,35.8,22.74,WSW,254,3.5,3.5,96,0.01,CLR,,0.28,WeatherDisplay:10.37,2013-01-16 18:45:00,
2013-01-16 13:50:00,36.8,35.8,22.74,WSW,253,4.6,4.6,96,0.01,CLR,,0.28,WeatherDisplay:10.37,2013-01-16 18:50:00,
2013-01-16 13:55:00,36.6,35.6,22.74,SW,230,5.8,5.8,96,0.01,CLR,,0.28,WeatherDisplay:10.37,2013-01-16 18:55:00,
2013-01-16 14:00:00,36.6,35.6,22.74,WSW,246,4.6,4.6,96,0.01,CLR,,0.28,WeatherDisplay:10.37,2013-01-16 19:00:00,
2013-01-16 14:05:00,36.4,35.4,22.74,SW,219,3.5,3.5,96,0.01,CLR,,0.28,WeatherDisplay:10.37,2013-01-16 19:05:00,
2013-01-16 14:10:00,36.4,35.1,22.74,SW,223,5.8,5.8,95,0.01,CLR,,0.28,WeatherDisplay:10.37,2013-01-16 19:10:00,
2013-01-16 14:15:00,36.4,35.4,22.74,South,190,4.6,4.6,96,0.01,CLR,,0.28,WeatherDisplay:10.37,2013-01-16 19:15:00,
2013-01-16 14:20:00,36.3,35.0,22.74,SSW,211,3.5,3.5,95,0.01,CLR,,0.28,WeatherDisplay:10.37,2013-01-16 19:20:00,
2013-01-16 14:25:00,36.2,34.9,22.74,WSW,250,5.0,5.0,95,0.01,CLR,,0.28,WeatherDisplay:10.37,2013-01-16 19:25:00,
2013-01-16 14:30:00,36.3,35.0,22.74,WSW,242,3.5,3.5,95,0.01,CLR,,0.28,WeatherDisplay:10.37,2013-01-16 19:30:00,
2013-01-16 14:35:00,36.2,34.9,31.40,SW,220,6.9,6.9,95,0.00,CLR,,0.28,WeatherDisplay:10.37,2013-01-16 19:35:00,
2013-01-16 14:40:00,36.2,35.2,22.74,SSW,212,5.8,5.8,96,0.00,CLR,,0.28,WeatherDisplay:10.37,2013-01-16 19:40:00,
2013-01-16 14:45:00,36.2,35.2,22.74,WSW,254,8.1,8.1,96,0.00,CLR,,0.28,WeatherDisplay:10.37,2013-01-16 19:45:00,
2013-01-16 14:50:00,36.3,35.3,22.74,SW,228,3.5,3.5,96,0.01,RA,,0.28,WeatherDisplay:10.37,2013-01-16 19:50:00,
2013-01-16 14:55:00,36.4,35.4,22.74,WSW,240,8.1,8.1,96,0.01,RA,,0.28,WeatherDisplay:10.37,2013-01-16 19:55:00,
2013-01-16 15:00:00,36.3,35.3,22.74,SW,232,4.6,4.6,96,0.01,,,0.28,WeatherDisplay:10.37,2013-01-16 20:00:00,
2013-01-16 15:05:00,36.4,35.4,22.74,WSW,254,4.6,4.6,96,0.01,CLR,,0.28,WeatherDisplay:10.37,2013-01-16 20:05:00,
2013-01-16 15:10:00,36.4,35.4,22.74,SW,234,4.6,4.6,96,0.01,CLR,,0.28,WeatherDisplay:10.37,2013-01-16 20:10:00,
2013-01-16 15:15:00,36.5,35.5,22.74,WSW,246,3.5,0.0,96,0.01,CLR,,0.28,WeatherDisplay:10.37,2013-01-16 20:15:00,
2013-01-16 15:20:00,36.4,35.4,22.74,WSW,245,2.3,2.3,96,0.01,CLR,,0.28,WeatherDisplay:10.37,2013-01-16 20:20:00,
2013-01-16 15:25:00,36.3,35.3,22.74,SW,229,6.9,6.9,96,0.02,RA,,0.29,WeatherDisplay:10.37,2013-01-16 20:25:00,
2013-01-16 15:31:00,36.2,35.2,22.74,SW,224,8.1,8.1,96,0.02,RA,,0.29,WeatherDisplay:10.37,2013-01-16 20:31:00,
2013-01-16 15:36:00,36.2,35.2,22.74,SW,234,4.6,4.6,96,0.02,CLR,,0.29,WeatherDisplay:10.37,2013-01-16 20:36:00,
2013-01-16 15:41:00,36.2,35.2,22.74,WSW,238,3.5,3.5,96,0.02,CLR,,0.29,WeatherDisplay:10.37,2013-01-16 20:41:00,
2013-01-16 15:46:00,36.2,35.2,22.74,WSW,248,6.0,6.0,96,0.02,CLR,,0.29,WeatherDisplay:10.37,2013-01-16 20:46:00,
2013-01-16 15:51:00,36.3,35.3,22.74,WSW,249,3.5,3.5,96,0.01,CLR,,0.29,WeatherDisplay:10.37,2013-01-16 20:51:00,
2013-01-16 15:56:00,36.4,35.4,22.74,WSW,248,4.6,4.6,96,0.01,CLR,,0.29,WeatherDisplay:10.37,2013-01-16 20:56:00,
2013-01-16 16:01:00,36.3,35.3,22.74,SW,227,3.5,3.5,96,0.01,CLR,,0.29,WeatherDisplay:10.37,2013-01-16 21:01:00,
2013-01-16 16:06:00,36.4,35.4,22.74,WSW,240,3.5,3.5,96,0.01,CLR,,0.29,WeatherDisplay:10.37,2013-01-16 21:06:00,
2013-01-16 16:11:00,36.4,35.4,22.74,WSW,243,1.1,1.1,96,0.01,CLR,,0.29,WeatherDisplay:10.37,2013-01-16 21:11:00,
2013-01-16 16:16:00,36.4,35.4,22.74,WSW,243,2.3,2.3,96,0.01,CLR,,0.29,WeatherDisplay:10.37,2013-01-16 21:16:00,
2013-01-16 16:21:00,36.4,35.1,22.74,SSW,206,6.9,6.9,95,0.01,CLR,,0.29,WeatherDisplay:10.37,2013-01-16 21:21:00,
2013-01-16 16:26:00,36.3,35.0,22.74,SW,223,7.0,7.0,95,0.00,CLR,,0.29,WeatherDisplay:10.37,2013-01-16 21:26:00,
2013-01-16 16:31:00,36.4,35.1,22.74,SW,221,4.0,4.0,95,0.00,CLR,,0.29,WeatherDisplay:10.37,2013-01-16 21:31:00,
2013-01-16 16:36:00,36.3,35.0,22.74,SW,214,8.0,8.0,95,0.00,CLR,,0.29,WeatherDisplay:10.37,2013-01-16 21:36:00,
2013-01-16 16:41:00,36.4,35.1,22.74,WSW,242,4.6,4.6,95,0.00,CLR,,0.29,WeatherDisplay:10.37,2013-01-16 21:41:00,
2013-01-16 16:46:00,36.5,35.2,22.74,WSW,246,3.5,3.5,95,0.00,CLR,,0.29,WeatherDisplay:10.37,2013-01-16 21:46:00,
2013-01-16 16:51:00,36.6,35.3,22.74,WSW,252,3.5,3.5,95,0.00,CLR,,0.29,WeatherDisplay:10.37,2013-01-16 21:51:00,
2013-01-16 16:56:00,36.6,35.3,22.74,West,261,8.1,8.1,95,0.00,CLR,,0.29,WeatherDisplay:10.37,2013-01-16 21:56:00,
2013-01-16 17:01:00,36.6,35.3,22.74,SW,236,3.5,3.5,95,0.00,CLR,,0.29,WeatherDisplay:10.37,2013-01-16 22:01:00,
2013-01-16 17:06:00,36.6,35.3,22.74,WSW,248,4.6,4.6,95,0.00,CLR,,0.29,WeatherDisplay:10.37,2013-01-16 22:06:00,
2013-01-16 17:11:00,36.6,35.3,22.74,WSW,252,5.8,5.8,95,0.00,CLR,,0.29,WeatherDisplay:10.37,2013-01-16 22:11:00,
2013-01-16 17:16:00,36.7,35.4,22.74,WSW,252,4.6,4.6,95,0.00,CLR,,0.29,WeatherDisplay:10.37,2013-01-16 22:16:00,
2013-01-16 17:21:00,36.6,35.3,22.74,SW,236,6.0,6.0,95,0.00,CLR,,0.29,WeatherDisplay:10.37,2013-01-16 22:21:00,
2013-01-16 17:26:00,36.6,35.3,22.74,WSW,247,4.6,4.6,95,0.00,CLR,,0.29,WeatherDisplay:10.37,2013-01-16 22:26:00,
2013-01-16 17:31:00,36.6,35.3,22.74,SW,235,3.5,3.5,95,0.00,CLR,,0.29,WeatherDisplay:10.37,2013-01-16 22:31:00,
2013-01-16 17:36:00,36.6,35.3,22.74,WSW,240,3.5,3.5,95,0.00,CLR,,0.29,WeatherDisplay:10.37,2013-01-16 22:36:00,
2013-01-16 17:41:00,36.6,35.3,22.74,WSW,237,3.5,3.5,95,0.00,CLR,,0.29,WeatherDisplay:10.37,2013-01-16 22:41:00,
2013-01-16 17:46:00,36.6,35.3,22.74,WSW,245,6.0,6.0,95,0.00,CLR,,0.29,WeatherDisplay:10.37,2013-01-16 22:46:00,
2013-01-16 17:51:00,36.7,35.4,22.74,WSW,250,3.5,3.5,95,0.00,CLR,,0.29,WeatherDisplay:10.37,2013-01-16 22:51:00,
2013-01-16 17:56:00,36.7,35.4,22.74,WSW,246,3.5,3.5,95,0.00,CLR,,0.29,WeatherDisplay:10.37,2013-01-16 22:56:00,
2013-01-16 18:01:00,36.8,35.5,22.74,WSW,247,3.5,3.5,95,0.00,CLR,,0.29,WeatherDisplay:10.37,2013-01-16 23:01:00,
2013-01-16 18:06:00,36.7,35.1,22.74,WSW,247,4.6,4.6,94,0.00,CLR,,0.29,WeatherDisplay:10.37,2013-01-16 23:06:00,
2013-01-16 18:11:00,36.8,35.2,22.74,WSW,257,5.8,5.8,94,0.00,CLR,,0.29,WeatherDisplay:10.37,2013-01-16 23:11:00,
2013-01-16 18:16:00,36.8,35.5,22.74,WSW,242,3.5,3.5,95,0.00,CLR,,0.29,WeatherDisplay:10.37,2013-01-16 23:16:00,
2013-01-16 18:21:00,36.8,35.2,22.74,WSW,246,4.6,4.6,94,0.00,CLR,,0.29,WeatherDisplay:10.37,2013-01-16 23:21:00,
2013-01-16 18:26:00,36.9,35.3,22.74,WSW,245,4.6,4.6,94,0.00,CLR,,0.29,WeatherDisplay:10.37,2013-01-16 23:26:00,
2013-01-16 18:31:00,36.9,35.3,22.74,WSW,245,4.6,4.6,94,0.00,CLR,,0.29,WeatherDisplay:10.37,2013-01-16 23:31:00,
2013-01-16 18:36:00,36.9,35.3,22.74,WSW,238,6.9,6.9,94,0.00,CLR,,0.29,WeatherDisplay:10.37,2013-01-16 23:36:00,
2013-01-16 18:41:00,36.8,35.2,22.74,WSW,238,4.0,4.0,94,0.00,CLR,,0.29,WeatherDisplay:10.37,2013-01-16 23:41:00,
2013-01-16 18:46:00,36.8,35.2,22.74,SW,234,5.8,5.8,94,0.00,CLR,,0.29,WeatherDisplay:10.37,2013-01-16 23:46:00,
2013-01-16 18:51:00,36.8,35.2,22.74,WSW,237,5.0,5.0,94,0.00,CLR,,0.29,WeatherDisplay:10.37,2013-01-16 23:51:00,
2013-01-16 18:56:00,36.9,35.3,22.74,SW,226,6.9,6.9,94,0.00,CLR,,0.29,WeatherDisplay:10.37,2013-01-16 23:56:00,
2013-01-16 19:01:00,36.8,35.2,22.74,WSW,237,4.0,4.0,94,0.00,CLR,,0.29,WeatherDisplay:10.37,2013-01-17 00:01:00,
2013-01-16 19:06:00,36.8,35.2,22.74,WSW,257,11.5,11.5,94,0.00,CLR,,0.29,WeatherDisplay:10.37,2013-01-17 00:06:00,
2013-01-16 19:11:00,36.9,35.3,22.74,WSW,245,4.6,4.6,94,0.00,CLR,,0.29,WeatherDisplay:10.37,2013-01-17 00:11:00,
2013-01-16 19:16:00,36.9,35.3,22.74,WSW,256,3.5,3.5,94,0.00,CLR,,0.29,WeatherDisplay:10.37,2013-01-17 00:16:00,
2013-01-16 19:21:00,36.9,35.3,22.74,WSW,250,0.0,0.4,94,0.00,CLR,,0.29,WeatherDisplay:10.37,2013-01-17 00:21:00,
2013-01-16 19:26:00,36.9,35.3,22.74,WSW,254,5.8,5.8,94,0.00,CLR,,0.29,WeatherDisplay:10.37,2013-01-17 00:26:00,
2013-01-16 19:31:00,36.9,35.3,22.74,WSW,253,5.0,5.0,94,0.00,CLR,,0.29,WeatherDisplay:10.37,2013-01-17 00:31:00,
2013-01-16 19:36:00,36.9,35.3,22.74,WSW,250,5.8,5.8,94,0.00,CLR,,0.29,WeatherDisplay:10.37,2013-01-17 00:36:00,
2013-01-16 19:41:00,36.8,35.2,22.74,WSW,242,6.9,6.9,94,0.00,CLR,,0.29,WeatherDisplay:10.37,2013-01-17 00:41:00,
2013-01-16 19:46:00,36.8,35.2,22.74,WSW,253,4.0,4.4,94,0.00,CLR,,0.29,WeatherDisplay:10.37,2013-01-17 00:46:00,
2013-01-16 19:51:00,36.8,35.2,22.74,WSW,246,3.5,3.5,94,0.00,CLR,,0.29,WeatherDisplay:10.37,2013-01-17 00:51:00,
2013-01-16 19:56:00,36.8,35.2,22.74,WSW,241,6.0,6.0,94,0.00,CLR,,0.29,WeatherDisplay:10.37,2013-01-17 00:56:00,
2013-01-16 20:01:00,36.8,35.2,22.74,WSW,238,4.6,4.6,94,0.00,CLR,,0.29,WeatherDisplay:10.37,2013-01-17 01:01:00,
2013-01-16 20:06:00,36.8,35.2,22.74,WSW,245,6.9,6.9,94,0.00,CLR,,0.29,WeatherDisplay:10.37,2013-01-17 01:06:00,
2013-01-16 20:11:00,36.8,35.2,22.74,WSW,250,4.0,4.0,94,0.00,CLR,,0.29,WeatherDisplay:10.37,2013-01-17 01:11:00,
2013-01-16 20:16:00,36.8,35.2,22.74,SW,226,4.6,4.6,94,0.00,CLR,,0.29,WeatherDisplay:10.37,2013-01-17 01:16:00,
2013-01-16 20:21:00,36.7,35.1,22.74,WSW,249,5.8,5.8,94,0.00,CLR,,0.29,WeatherDisplay:10.37,2013-01-17 01:21:00,
2013-01-16 20:26:00,36.7,34.9,22.74,WSW,241,3.5,3.5,93,0.00,CLR,,0.29,WeatherDisplay:10.37,2013-01-17 01:26:00,
2013-01-16 20:31:00,36.7,34.9,22.74,WSW,247,4.6,4.6,93,0.00,CLR,,0.29,WeatherDisplay:10.37,2013-01-17 01:31:00,
2013-01-16 20:37:00,36.8,35.0,22.74,WSW,241,3.5,3.5,93,0.00,CLR,,0.29,WeatherDisplay:10.37,2013-01-17 01:37:00,
2013-01-16 20:42:00,36.7,34.9,22.74,WSW,243,2.3,2.3,93,0.00,CLR,,0.29,WeatherDisplay:10.37,2013-01-17 01:42:00,
2013-01-16 20:47:00,36.7,34.9,22.74,West,259,3.5,3.5,93,0.00,CLR,,0.29,WeatherDisplay:10.37,2013-01-17 01:47:00,
2013-01-16 20:52:00,36.7,34.9,22.74,West,271,6.9,6.9,93,0.00,CLR,,0.29,WeatherDisplay:10.37,2013-01-17 01:52:00,
2013-01-16 20:57:00,36.7,34.9,22.74,SW,226,3.5,3.5,93,0.00,CLR,,0.29,WeatherDisplay:10.37,2013-01-17 01:57:00,
2013-01-16 21:02:00,36.7,34.6,22.74,SW,222,5.8,5.8,92,0.00,CLR,,0.29,WeatherDisplay:10.37,2013-01-17 02:02:00,
2013-01-16 21:07:00,36.6,34.5,22.74,WSW,244,2.3,2.3,92,0.00,CLR,,0.29,WeatherDisplay:10.37,2013-01-17 02:07:00,
2013-01-16 21:12:00,36.7,34.6,22.74,WSW,250,3.5,3.5,92,0.00,CLR,,0.29,WeatherDisplay:10.37,2013-01-17 02:12:00,
2013-01-16 21:17:00,36.7,34.6,22.74,WSW,244,3.5,3.5,92,0.00,CLR,,0.29,WeatherDisplay:10.37,2013-01-17 02:17:00,
2013-01-16 21:22:00,36.7,34.6,22.74,WSW,246,4.6,4.6,92,0.00,CLR,,0.29,WeatherDisplay:10.37,2013-01-17 02:22:00,
2013-01-16 21:27:00,36.7,34.6,22.74,WSW,246,5.8,5.8,92,0.00,CLR,,0.29,WeatherDisplay:10.37,2013-01-17 02:27:00,
2013-01-16 21:32:00,36.7,34.6,31.40,SW,236,3.5,3.5,92,0.00,CLR,,0.29,WeatherDisplay:10.37,2013-01-17 02:32:00,
2013-01-16 21:37:00,36.6,34.5,22.74,WSW,241,4.6,4.6,92,0.00,CLR,,0.29,WeatherDisplay:10.37,2013-01-17 02:37:00,
2013-01-16 21:42:00,36.6,34.2,22.74,SW,223,5.8,5.8,91,0.00,CLR,,0.29,WeatherDisplay:10.37,2013-01-17 02:42:00,
2013-01-16 21:47:00,36.6,34.5,22.74,WSW,244,5.8,5.8,92,0.00,CLR,,0.29,WeatherDisplay:10.37,2013-01-17 02:47:00,
2013-01-16 21:52:00,36.6,34.5,22.74,SW,236,5.8,5.8,92,0.00,CLR,,0.29,WeatherDisplay:10.37,2013-01-17 02:52:00,
2013-01-16 21:57:00,36.6,34.5,22.74,SW,229,3.5,3.5,92,0.00,CLR,,0.29,WeatherDisplay:10.37,2013-01-17 02:57:00,
2013-01-16 22:02:00,36.6,34.5,22.74,SW,219,3.5,3.5,92,0.00,CLR,,0.29,WeatherDisplay:10.37,2013-01-17 03:02:00,
2013-01-16 22:07:00,36.6,34.5,22.74,WSW,257,3.5,3.5,92,0.00,CLR,,0.29,WeatherDisplay:10.37,2013-01-17 03:07:00,
2013-01-16 22:12:00,36.6,34.2,22.74,WSW,257,2.0,2.0,91,0.00,CLR,,0.29,WeatherDisplay:10.37,2013-01-17 03:12:00,
2013-01-16 22:17:00,36.6,34.2,22.74,West,259,4.0,4.0,91,0.00,CLR,,0.29,WeatherDisplay:10.37,2013-01-17 03:17:00,
2013-01-16 22:22:00,36.5,34.1,22.74,West,259,3.5,0.0,91,0.00,CLR,,0.29,WeatherDisplay:10.37,2013-01-17 03:22:00,
2013-01-16 22:27:00,36.5,34.1,22.74,West,259,3.5,3.5,91,0.00,CLR,,0.29,WeatherDisplay:10.37,2013-01-17 03:27:00,
2013-01-16 22:32:00,36.5,34.1,22.74,WSW,254,0.0,0.0,91,0.00,CLR,,0.29,WeatherDisplay:10.37,2013-01-17 03:32:00,
2013-01-16 22:37:00,36.5,34.1,22.74,WSW,248,4.6,4.6,91,0.00,CLR,,0.29,WeatherDisplay:10.37,2013-01-17 03:37:00,
2013-01-16 22:42:00,36.5,34.1,22.74,WSW,248,0.0,0.0,91,0.00,CLR,,0.29,WeatherDisplay:10.37,2013-01-17 03:42:00,
2013-01-16 22:47:00,36.6,34.2,22.74,SSW,212,4.6,4.6,91,0.00,CLR,,0.29,WeatherDisplay:10.37,2013-01-17 03:47:00,
2013-01-16 22:52:00,36.6,34.2,22.74,WSW,251,3.5,3.5,91,0.00,CLR,,0.29,WeatherDisplay:10.37,2013-01-17 03:52:00,
2013-01-16 22:57:00,36.6,34.2,22.74,West,261,3.5,0.0,91,0.00,CLR,,0.29,WeatherDisplay:10.37,2013-01-17 03:57:00,
2013-01-16 23:02:00,36.6,34.2,22.74,WSW,250,0.0,0.0,91,0.00,CLR,,0.29,WeatherDisplay:10.37,2013-01-17 04:02:00,
2013-01-16 23:07:00,36.6,34.2,22.74,WSW,250,0.0,0.0,91,0.00,CLR,,0.29,WeatherDisplay:10.37,2013-01-17 04:07:00,
2013-01-16 23:12:00,36.6,34.2,22.74,WSW,253,3.5,3.5,91,0.00,CLR,,0.29,WeatherDisplay:10.37,2013-01-17 04:12:00,
2013-01-16 23:17:00,36.6,34.2,22.74,WSW,253,0.0,0.0,91,0.00,CLR,,0.29,WeatherDisplay:10.37,2013-01-17 04:17:00,
2013-01-16 23:22:00,36.6,34.2,22.74,WSW,253,3.5,3.5,91,0.00,CLR,,0.29,WeatherDisplay:10.37,2013-01-17 04:22:00,
2013-01-16 23:27:00,36.6,34.2,22.74,WSW,253,2.3,2.3,91,0.00,CLR,,0.29,WeatherDisplay:10.37,2013-01-17 04:27:00,
2013-01-16 23:32:00,36.6,34.2,22.74,WSW,253,3.5,3.5,91,0.00,CLR,,0.29,WeatherDisplay:10.37,2013-01-17 04:32:00,
2013-01-16 23:37:00,36.6,34.2,22.74,WSW,253,0.0,0.0,91,0.00,CLR,,0.29,WeatherDisplay:10.37,2013-01-17 04:37:00,
2013-01-16 23:42:00,36.6,34.2,22.74,WSW,253,2.3,0.0,91,0.00,CLR,,0.29,WeatherDisplay:10.37,2013-01-17 04:42:00,
2013-01-16 23:47:00,36.6,34.5,22.74,WSW,253,3.0,3.0,92,0.00,CLR,,0.29,WeatherDisplay:10.37,2013-01-17 04:47:00,
2013-01-16 23:52:00,36.6,34.2,22.74,WSW,248,4.6,4.6,91,0.00,CLR,,0.29,WeatherDisplay:10.37,2013-01-17 04:52:00,
2013-01-16 23:57:00,36.5,34.1,22.74,WSW,242,5.8,5.8,91,0.00,CLR,,0.29,WeatherDisplay:10.37,2013-01-17 04:57:00,